Time;durP1;ratioP1;P1;durP2;ratioP2;P2;SDS_P1;SDS_P2;PMS_P1;PMS_P2;Temp;Humidity;BMP_temperature;BMP_pressure;BME280_temperature;BME280_humidity;BME280_pressure;Samples;Min_cycle;Max_cycle;Signal;HPM_P1;HPM_P2
2023/06/07 00:01:54;;;;;;;7.80;4.80;;;;;;;18.27;54.30;101580.47;5071053;28;20214;-57
2023/06/07 00:04:21;;;;;;;9.20;4.97;;;;;;;18.25;54.20;101585.94;5062481;28;20056;-57
2023/06/07 00:06:48;;;;;;;9.80;4.47;;;;;;;18.22;54.49;101593.31;5074037;28;20067;-57
2023/06/07 00:09:15;;;;;;;6.68;4.05;;;;;;;18.20;54.46;101590.72;5055053;28;20135;-56
2023/06/07 00:11:42;;;;;;;8.82;4.40;;;;;;;18.17;54.50;101591.75;5072557;28;20452;-56
2023/06/07 00:14:09;;;;;;;9.60;3.90;;;;;;;18.14;54.50;101586.66;5077043;28;20050;-56
2023/06/07 00:16:35;;;;;;;8.48;4.72;;;;;;;18.12;54.34;101593.03;5072527;28;20040;-56
2023/06/07 00:19:03;;;;;;;10.07;4.97;;;;;;;18.08;54.21;101581.69;5072953;28;20155;-56
2023/06/07 00:21:30;;;;;;;7.05;4.20;;;;;;;18.09;53.78;101586.06;5073114;28;20080;-57
2023/06/07 00:23:56;;;;;;;9.23;3.60;;;;;;;18.08;53.70;101589.69;5072233;28;20102;-57
2023/06/07 00:26:23;;;;;;;7.00;3.97;;;;;;;18.03;53.32;101588.25;5067555;28;20409;-57
2023/06/07 00:28:51;;;;;;;11.30;4.60;;;;;;;17.99;53.39;101592.97;5067498;28;20105;-57
2023/06/07 00:31:17;;;;;;;7.93;4.63;;;;;;;17.91;53.51;101582.75;5068897;28;20044;-58
2023/06/07 00:33:44;;;;;;;11.85;3.85;;;;;;;17.85;53.74;101587.59;5064488;28;20056;-57
2023/06/07 00:36:11;;;;;;;7.05;4.25;;;;;;;17.80;53.95;101587.88;5065500;28;20051;-58
2023/06/07 00:38:37;;;;;;;8.75;4.32;;;;;;;17.75;54.28;101590.84;5063588;28;20087;-56
2023/06/07 00:41:04;;;;;;;6.53;4.18;;;;;;;17.67;54.31;101587.81;5066018;28;20048;-56
2023/06/07 00:43:30;;;;;;;6.10;3.70;;;;;;;17.60;54.21;101591.78;5066612;28;20473;-56
2023/06/07 00:45:57;;;;;;;5.75;3.90;;;;;;;17.58;54.32;101588.38;5069704;28;20467;-56
2023/06/07 00:48:24;;;;;;;8.90;4.10;;;;;;;17.54;55.02;101592.16;5071570;28;20487;-56
2023/06/07 00:50:51;;;;;;;8.43;3.90;;;;;;;17.46;54.98;101583.75;5069115;28;20052;-56
2023/06/07 00:53:17;;;;;;;9.52;4.25;;;;;;;17.43;54.84;101591.03;5071903;28;20061;-56
2023/06/07 00:55:45;;;;;;;11.13;3.58;;;;;;;17.42;55.27;101594.63;5071560;28;20087;-56
2023/06/07 00:58:11;;;;;;;5.68;4.05;;;;;;;17.37;55.03;101590.53;5071415;28;20123;-56
2023/06/07 01:00:38;;;;;;;9.95;4.32;;;;;;;17.37;54.95;101596.75;5072264;28;20136;-56
2023/06/07 01:03:05;;;;;;;10.65;4.55;;;;;;;17.43;54.35;101593.69;5070383;28;20131;-56
2023/06/07 01:05:33;;;;;;;5.47;3.67;;;;;;;17.40;54.91;101591.22;5071769;28;20052;-56
2023/06/07 01:08:00;;;;;;;8.05;4.28;;;;;;;17.42;54.18;101589.28;5069294;28;20054;-57
2023/06/07 01:10:27;;;;;;;9.35;4.22;;;;;;;17.42;54.24;101583.94;5072308;28;20158;-56
2023/06/07 01:12:54;;;;;;;7.40;4.10;;;;;;;17.43;54.16;101585.69;5070952;28;20131;-56
2023/06/07 01:15:22;;;;;;;7.40;3.50;;;;;;;17.48;53.93;101582.72;5071092;28;20056;-56
2023/06/07 01:17:51;;;;;;;10.55;3.60;;;;;;;17.52;53.87;101583.41;5072097;28;20040;-56
2023/06/07 01:20:22;;;;;;;7.43;4.22;;;;;;;17.54;53.85;101581.47;5067369;28;20060;-56
2023/06/07 01:22:53;;;;;;;9.52;4.63;;;;;;;17.54;54.27;101586.81;5072316;28;20076;-56
2023/06/07 01:25:20;;;;;;;;;;;;;;;17.55;54.50;101580.53;5069595;28;20507;-56
2023/06/07 01:27:50;;;;;;;8.63;4.03;;;;;;;17.53;54.51;101582.44;5071302;28;20042;-56
2023/06/07 01:30:17;;;;;;;7.53;4.77;;;;;;;17.49;55.27;101583.56;5070705;28;20052;-57
2023/06/07 01:32:45;;;;;;;9.48;3.88;;;;;;;17.49;55.33;101583.56;5068637;28;20659;-56
2023/06/07 01:35:12;;;;;;;5.30;3.72;;;;;;;17.46;55.32;101573.06;5074682;28;20354;-57
2023/06/07 01:37:41;;;;;;;7.80;4.15;;;;;;;17.43;55.57;101582.16;5070820;28;20068;-57
2023/06/07 01:40:09;;;;;;;5.80;3.28;;;;;;;17.42;55.48;101583.94;5072973;28;20088;-57
2023/06/07 01:42:37;;;;;;;10.45;3.80;;;;;;;17.51;55.06;101576.34;5076342;28;20140;-56
2023/06/07 01:45:09;;;;;;;6.65;4.30;;;;;;;17.47;55.14;101574.81;5071635;28;20048;-57
2023/06/07 01:47:36;;;;;;;7.82;3.47;;;;;;;17.43;54.95;101569.66;5074910;28;20047;-57
2023/06/07 01:50:05;;;;;;;7.47;3.58;;;;;;;17.41;55.25;101574.22;5078586;28;20058;-57
2023/06/07 01:52:32;;;;;;;11.18;4.03;;;;;;;17.35;55.28;101571.94;5070132;28;20059;-57
2023/06/07 01:55:00;;;;;;;6.95;4.03;;;;;;;17.37;55.25;101574.50;5072651;28;20123;-57
2023/06/07 01:58:04;;;;;;;7.03;3.28;;;;;;;17.35;55.25;101571.94;5072284;28;20072;-57
2023/06/07 02:00:48;;;;;;;5.53;3.35;;;;;;;17.33;55.31;101573.84;5042674;28;20173;-57
2023/06/07 02:03:19;;;;;;;7.35;3.75;;;;;;;17.33;55.12;101568.50;5080421;28;20319;-57
2023/06/07 02:05:52;;;;;;;6.43;3.78;;;;;;;17.29;55.20;101564.28;5075696;28;20055;-57
2023/06/07 02:08:31;;;;;;;11.77;5.13;;;;;;;17.25;55.18;101570.78;5057955;28;20076;-57
2023/06/07 02:10:59;;;;;;;6.60;3.40;;;;;;;17.26;55.07;101572.47;5067177;28;20173;-57
2023/06/07 02:13:27;;;;;;;9.00;4.85;;;;;;;17.28;55.12;101565.25;5072691;28;20109;-56
2023/06/07 02:15:54;;;;;;;12.23;4.85;;;;;;;17.27;55.22;101566.19;5067715;28;20131;-57
2023/06/07 02:18:21;;;;;;;9.30;3.30;;;;;;;17.26;55.04;101564.47;5077412;28;20552;-57
2023/06/07 02:20:48;;;;;;;4.60;3.30;;;;;;;17.26;54.82;101569.81;5074363;28;20053;-57
2023/06/07 02:23:15;;;;;;;8.63;3.80;;;;;;;17.27;54.64;101568.03;5077934;28;20076;-57
2023/06/07 02:25:41;;;;;;;5.60;3.55;;;;;;;17.25;55.09;101562.78;5081494;28;20049;-57
2023/06/07 02:28:08;;;;;;;9.05;3.80;;;;;;;17.24;54.90;101574.41;5079910;28;20127;-57
2023/06/07 02:30:35;;;;;;;11.73;3.53;;;;;;;17.21;54.92;101570.13;5063681;28;20131;-57
2023/06/07 02:33:02;;;;;;;5.78;3.50;;;;;;;17.18;55.18;101570.31;5074868;28;20079;-57
2023/06/07 02:35:28;;;;;;;5.65;3.75;;;;;;;17.18;55.04;101566.75;5076236;28;20055;-56
2023/06/07 02:37:55;;;;;;;6.95;3.65;;;;;;;17.17;55.42;101562.38;5080282;28;20083;-57
2023/06/07 02:40:22;;;;;;;7.38;4.03;;;;;;;17.15;55.47;101567.81;5072764;28;20072;-57
2023/06/07 02:42:49;;;;;;;9.30;4.05;;;;;;;17.14;54.93;101562.56;5086557;28;20048;-57
2023/06/07 02:45:15;;;;;;;9.30;4.68;;;;;;;17.12;55.32;101569.81;5077999;28;20095;-56
2023/06/07 02:47:43;;;;;;;9.60;3.58;;;;;;;17.09;55.51;101570.00;5056048;28;20064;-57
2023/06/07 02:50:10;;;;;;;8.70;4.10;;;;;;;17.10;55.36;101571.69;5071285;28;20063;-57
2023/06/07 02:52:37;;;;;;;6.85;3.95;;;;;;;17.12;55.43;101575.16;5071925;28;20377;-56
2023/06/07 02:55:04;;;;;;;7.68;3.58;;;;;;;17.09;55.25;101565.50;5076094;28;20206;-56
2023/06/07 02:57:30;;;;;;;8.50;3.50;;;;;;;17.11;55.32;101563.59;5078351;28;20110;-56
2023/06/07 02:59:58;;;;;;;12.20;3.80;;;;;;;17.14;55.02;101565.22;5081025;28;20557;-56
2023/06/07 03:02:25;;;;;;;6.75;3.70;;;;;;;17.13;55.09;101558.16;5078529;28;20060;-56
2023/06/07 03:04:52;;;;;;;5.90;3.92;;;;;;;17.13;54.96;101567.06;5082914;28;20052;-56
2023/06/07 03:07:20;;;;;;;4.40;3.08;;;;;;;17.16;54.57;101576.66;5083682;28;20471;-56
2023/06/07 03:09:47;;;;;;;5.97;3.53;;;;;;;17.19;54.27;101571.16;5073342;28;20365;-56
2023/06/07 03:12:14;;;;;;;6.47;3.72;;;;;;;17.19;54.22;101565.81;5075171;28;20098;-56
2023/06/07 03:14:42;;;;;;;6.93;3.67;;;;;;;17.19;54.39;101565.81;5077091;28;20066;-57
2023/06/07 03:17:08;;;;;;;7.68;3.88;;;;;;;17.19;54.37;101565.81;5064524;28;20202;-57
2023/06/07 03:19:35;;;;;;;8.45;4.00;;;;;;;17.20;54.57;101578.22;5074589;28;20431;-56
2023/06/07 03:22:06;;;;;;;5.60;3.85;;;;;;;17.20;54.64;101578.22;5077258;28;20452;-56
2023/06/07 03:24:34;;;;;;;7.07;4.22;;;;;;;17.24;54.43;101571.72;5084105;28;20070;-56
2023/06/07 03:27:01;;;;;;;7.88;4.50;;;;;;;17.28;53.80;101575.06;5082282;28;20054;-56
2023/06/07 03:29:28;;;;;;;8.10;3.67;;;;;;;17.31;53.27;101570.41;5089213;28;20154;-57
2023/06/07 03:31:54;;;;;;;11.18;4.15;;;;;;;17.29;53.19;101572.31;5085581;28;20131;-57
2023/06/07 03:34:21;;;;;;;6.85;4.28;;;;;;;17.28;52.98;101573.28;5073823;28;20426;-57
2023/06/07 03:36:48;;;;;;;3.75;3.10;;;;;;;17.32;52.56;101577.47;5082336;28;20098;-57
2023/06/07 03:39:15;;;;;;;6.85;4.05;;;;;;;17.31;52.51;101582.91;5074805;28;20044;-57
2023/06/07 03:41:41;;;;;;;9.18;3.97;;;;;;;17.33;52.00;101583.69;5076245;28;20056;-57
2023/06/07 03:44:08;;;;;;;8.52;4.10;;;;;;;17.35;51.82;101577.28;5074903;28;20079;-57
2023/06/07 03:46:35;;;;;;;5.93;3.60;;;;;;;17.39;51.84;101580.63;5082676;28;20048;-57
2023/06/07 03:49:01;;;;;;;6.47;3.58;;;;;;;17.39;51.80;101581.50;5066135;28;20119;-57
2023/06/07 03:51:32;;;;;;;9.52;3.72;;;;;;;17.34;51.85;101580.88;5060445;28;20106;-57
2023/06/07 03:53:59;;;;;;;6.43;3.83;;;;;;;17.33;51.85;101579.19;5082862;28;20049;-57
2023/06/07 03:56:25;;;;;;;7.82;3.78;;;;;;;17.32;51.73;101572.13;5065763;28;20048;-57
2023/06/07 03:58:53;;;;;;;5.50;3.58;;;;;;;17.38;51.46;101577.09;5063548;28;20044;-57
2023/06/07 04:01:21;;;;;;;7.13;3.88;;;;;;;17.38;51.39;101571.75;5069059;28;20048;-57
2023/06/07 04:03:48;;;;;;;9.45;4.28;;;;;;;17.39;51.42;101576.16;5068064;28;20574;-57
2023/06/07 04:06:16;;;;;;;8.63;3.47;;;;;;;17.37;51.50;101569.16;5061854;28;20491;-57
2023/06/07 04:08:42;;;;;;;8.75;4.13;;;;;;;17.37;51.59;101570.00;5062836;28;20491;-57
2023/06/07 04:11:09;;;;;;;9.70;4.32;;;;;;;17.41;51.73;101576.91;5067677;28;20092;-57
2023/06/07 04:13:35;;;;;;;7.28;3.30;;;;;;;17.41;51.57;101576.91;5062887;28;20063;-57
2023/06/07 04:16:02;;;;;;;7.70;2.95;;;;;;;17.46;51.18;101573.06;5065379;28;20044;-57
2023/06/07 04:18:28;;;;;;;6.10;3.03;;;;;;;17.43;51.34;101579.50;5065526;28;20446;-57
2023/06/07 04:20:55;;;;;;;7.75;3.70;;;;;;;17.42;51.57;101578.59;5067553;28;20047;-56
2023/06/07 04:23:22;;;;;;;7.53;3.58;;;;;;;17.41;51.55;101578.72;5057835;28;20455;-56
2023/06/07 04:25:48;;;;;;;6.30;3.40;;;;;;;17.40;51.72;101579.66;5064929;28;20049;-57
2023/06/07 04:28:15;;;;;;;11.60;3.55;;;;;;;17.41;51.67;101579.56;5061424;28;20608;-57
2023/06/07 04:30:42;;;;;;;6.95;3.88;;;;;;;17.40;51.88;101585.88;5068913;28;20072;-56
2023/06/07 04:33:13;;;;;;;9.60;4.00;;;;;;;17.37;52.12;101586.03;5062764;28;20406;-56
2023/06/07 04:35:42;;;;;;;5.45;3.45;;;;;;;17.37;51.90;101579.84;5065576;28;20131;-56
2023/06/07 04:38:11;;;;;;;11.30;3.75;;;;;;;17.38;51.87;101585.09;5061182;28;20037;-57
2023/06/07 04:40:41;;;;;;;6.15;3.50;;;;;;;17.33;52.02;101576.50;5062762;28;20457;-57
2023/06/07 04:43:12;;;;;;;6.50;3.85;;;;;;;17.36;52.43;101579.00;5061161;28;20075;-56
2023/06/07 04:45:41;;;;;;;9.50;4.07;;;;;;;17.38;51.95;101571.75;5067574;28;20342;-56
2023/06/07 04:48:07;;;;;;;6.90;3.95;;;;;;;17.38;51.96;101571.75;5065149;28;20057;-56
2023/06/07 04:50:38;;;;;;;12.02;4.03;;;;;;;17.31;51.84;101573.09;5063753;28;20404;-57
2023/06/07 04:53:05;;;;;;;;;;;;;;;17.46;51.45;101573.06;5065091;28;20177;-56
2023/06/07 04:55:34;;;;;;;9.40;5.05;;;;;;;17.47;51.39;101582.81;5063921;28;19927;-57
2023/06/07 04:58:05;;;;;;;9.43;3.65;;;;;;;17.47;51.26;101581.00;5062406;28;20056;-57
2023/06/07 05:00:33;;;;;;;12.98;3.92;;;;;;;17.41;51.28;101576.91;5079328;28;20428;-57
2023/06/07 05:03:08;;;;;;;7.50;3.70;;;;;;;17.55;50.89;101580.53;5048354;28;20461;-57
2023/06/07 05:05:35;;;;;;;12.10;3.65;;;;;;;17.59;50.86;101585.59;5066950;28;20063;-57
2023/06/07 05:08:02;;;;;;;6.90;3.83;;;;;;;17.68;50.66;101576.13;5058380;28;20064;-57
2023/06/07 05:10:29;;;;;;;9.55;3.65;;;;;;;17.67;50.78;101577.13;5061588;28;20477;-57
2023/06/07 05:12:56;;;;;;;12.50;4.15;;;;;;;17.75;50.35;101584.63;5066755;28;20064;-57
2023/06/07 05:15:23;;;;;;;7.22;3.40;;;;;;;17.69;50.31;101577.88;5044768;28;20057;-56
2023/06/07 05:17:50;;;;;;;17.95;4.10;;;;;;;17.73;50.18;101579.38;5067763;28;20040;-57
2023/06/07 05:20:17;;;;;;;8.18;3.60;;;;;;;17.70;50.16;101587.59;5069692;28;20040;-57
2023/06/07 05:22:45;;;;;;;9.55;4.07;;;;;;;17.79;50.16;101589.69;5072357;28;20078;-57
2023/06/07 05:25:12;;;;;;;7.78;3.42;;;;;;;17.82;49.83;101577.97;5071503;28;20469;-57
2023/06/07 05:27:39;;;;;;;7.10;3.58;;;;;;;17.92;49.85;101583.63;5070766;28;20154;-57
2023/06/07 05:30:07;;;;;;;7.32;3.45;;;;;;;17.94;49.53;101595.91;5072009;28;20477;-57
2023/06/07 05:32:34;;;;;;;7.93;3.42;;;;;;;17.99;50.06;101584.94;5071821;28;20048;-57
2023/06/07 05:35:02;;;;;;;13.00;3.80;;;;;;;18.04;49.16;101585.50;5071045;28;20457;-57
2023/06/07 05:37:32;;;;;;;10.05;4.07;;;;;;;18.16;48.86;101583.84;5064417;28;20460;-57
2023/06/07 05:39:59;;;;;;;14.00;3.90;;;;;;;18.37;48.45;101581.59;5081264;28;20437;-57
2023/06/07 05:42:26;;;;;;;11.25;4.03;;;;;;;18.50;48.25;101576.28;5070877;28;20625;-57
2023/06/07 05:44:54;;;;;;;16.90;4.22;;;;;;;18.43;47.81;101580.34;5068097;28;20080;-57
2023/06/07 05:47:20;;;;;;;11.70;3.67;;;;;;;18.57;47.70;101582.97;5070925;28;20249;-57
2023/06/07 05:49:47;;;;;;;7.07;3.67;;;;;;;18.52;48.27;101580.59;5070847;28;20132;-57
2023/06/07 05:52:14;;;;;;;6.28;4.05;;;;;;;18.46;48.69;101586.34;5071525;28;20044;-56
2023/06/07 05:54:48;;;;;;;11.10;3.78;;;;;;;18.58;48.61;101581.16;5070511;28;20048;-57
2023/06/07 05:57:15;;;;;;;7.68;3.70;;;;;;;18.73;48.36;101587.28;5071254;28;20333;-57
2023/06/07 05:59:41;;;;;;;7.65;3.97;;;;;;;18.62;48.90;101585.31;5071807;28;20436;-57
2023/06/07 06:02:08;;;;;;;9.10;4.43;;;;;;;18.71;48.91;101584.72;5071732;28;20548;-57
2023/06/07 06:04:35;;;;;;;10.07;4.40;;;;;;;18.73;48.83;101582.78;5070420;28;20411;-57
2023/06/07 06:07:02;;;;;;;12.10;4.00;;;;;;;18.70;49.20;101593.69;5070669;28;20474;-57
2023/06/07 06:09:30;;;;;;;8.13;4.18;;;;;;;18.66;49.43;101590.38;5067206;28;20055;-57
2023/06/07 06:11:57;;;;;;;10.32;4.25;;;;;;;18.76;48.88;101593.28;5068958;28;20055;-58
2023/06/07 06:14:25;;;;;;;13.63;5.10;;;;;;;18.92;49.04;101592.31;5073865;28;20092;-56
2023/06/07 06:16:51;;;;;;;5.93;3.30;;;;;;;19.02;48.48;101593.41;5077026;28;20520;-56
2023/06/07 06:19:19;;;;;;;13.27;3.70;;;;;;;19.18;48.03;101591.38;5072935;28;20098;-57
2023/06/07 06:21:46;;;;;;;13.55;3.85;;;;;;;19.31;47.73;101593.22;5074150;28;20135;-56
2023/06/07 06:24:13;;;;;;;6.60;3.55;;;;;;;19.38;47.09;101594.50;5084736;28;20052;-58
2023/06/07 06:26:40;;;;;;;10.10;3.97;;;;;;;19.50;46.68;101593.66;5071925;28;20049;-56
2023/06/07 06:29:06;;;;;;;8.68;3.55;;;;;;;19.57;46.48;101600.31;5054521;28;20054;-56
2023/06/07 06:31:33;;;;;;;6.32;3.90;;;;;;;19.79;46.14;101598.81;5073902;28;20052;-56
2023/06/07 06:34:00;;;;;;;12.30;4.05;;;;;;;19.72;45.81;101595.69;5075596;28;20072;-56
2023/06/07 06:36:29;;;;;;;7.68;3.25;;;;;;;19.79;46.35;101604.16;5076889;28;20483;-56
2023/06/07 06:38:56;;;;;;;15.98;4.22;;;;;;;19.83;46.35;101591.38;5082166;28;20048;-57
2023/06/07 06:41:23;;;;;;;11.02;3.95;;;;;;;19.99;46.39;101600.03;5083813;28;20143;-57
2023/06/07 06:43:49;;;;;;;7.97;3.85;;;;;;;20.12;45.76;101600.03;5082884;28;20448;-57
2023/06/07 06:46:16;;;;;;;10.10;3.88;;;;;;;20.09;46.57;101585.03;5094749;28;20143;-56
2023/06/07 06:48:44;;;;;;;8.13;3.92;;;;;;;20.10;46.51;101591.22;5080141;28;20119;-57
2023/06/07 06:51:28;;;;;;;9.68;3.65;;;;;;;20.24;46.55;101599.16;5088211;28;20449;-57
2023/06/07 06:53:55;;;;;;;8.10;3.53;;;;;;;20.23;45.62;101593.88;5082906;28;20088;-57
2023/06/07 06:56:22;;;;;;;9.93;4.38;;;;;;;20.57;45.14;101600.28;5063046;28;20413;-55
2023/06/07 06:58:48;;;;;;;8.98;3.75;;;;;;;20.68;44.84;101603.06;5078276;28;20131;-56
2023/06/07 07:01:15;;;;;;;13.07;3.55;;;;;;;20.86;44.17;101599.97;5074643;28;20053;-57
2023/06/07 07:03:42;;;;;;;9.27;3.30;;;;;;;20.98;43.05;101593.66;5075012;28;20057;-57
2023/06/07 07:06:09;;;;;;;8.63;2.95;;;;;;;21.05;43.09;101600.28;5073391;28;20045;-57
2023/06/07 07:08:39;;;;;;;6.82;2.83;;;;;;;21.18;40.54;101604.69;5061645;28;20131;-57
2023/06/07 07:11:06;;;;;;;6.20;2.80;;;;;;;21.29;39.99;101599.34;5069382;28;20453;-57
2023/06/07 07:13:32;;;;;;;5.97;2.80;;;;;;;21.35;38.71;101601.56;5073742;28;20486;-57
2023/06/07 07:15:59;;;;;;;9.38;2.67;;;;;;;21.43;37.48;101604.53;5074427;28;20048;-57
2023/06/07 07:18:26;;;;;;;15.27;3.00;;;;;;;21.61;38.70;101604.06;5085522;28;20066;-57
2023/06/07 07:20:52;;;;;;;10.35;3.95;;;;;;;21.70;37.97;101606.03;5074511;28;20493;-57
2023/06/07 07:23:19;;;;;;;9.07;2.53;;;;;;;21.71;38.13;101602.38;5075990;28;20109;-57
2023/06/07 07:25:46;;;;;;;6.35;2.88;;;;;;;21.78;37.79;101602.75;5082507;28;20384;-57
2023/06/07 07:28:12;;;;;;;6.00;2.85;;;;;;;21.84;37.78;101602.25;5080218;28;20045;-57
2023/06/07 07:30:39;;;;;;;10.15;2.80;;;;;;;22.05;37.04;101604.19;5074578;28;20584;-57
2023/06/07 07:33:06;;;;;;;7.43;2.67;;;;;;;22.22;37.13;101600.13;5073318;28;20044;-57
2023/06/07 07:35:33;;;;;;;7.03;2.80;;;;;;;22.27;35.23;101608.69;5064295;28;20068;-57
2023/06/07 07:38:00;;;;;;;7.85;2.83;;;;;;;22.11;35.41;101601.84;5074263;28;20052;-57
2023/06/07 07:40:28;;;;;;;7.97;2.65;;;;;;;22.26;35.20;101612.34;5074121;28;20079;-57
2023/06/07 07:42:54;;;;;;;7.38;3.00;;;;;;;22.42;35.29;101607.44;5072386;28;20118;-57
2023/06/07 07:45:21;;;;;;;7.78;3.63;;;;;;;22.27;34.88;101603.31;5072664;28;20091;-57
2023/06/07 07:47:48;;;;;;;6.93;2.47;;;;;;;22.12;34.67;101608.09;5056619;28;20044;-57
2023/06/07 07:50:16;;;;;;;6.95;2.97;;;;;;;22.08;35.29;101607.47;5073601;28;20123;-56
2023/06/07 07:52:43;;;;;;;7.60;2.95;;;;;;;22.16;34.71;101602.31;5071602;28;20404;-57
2023/06/07 07:55:10;;;;;;;7.53;2.65;;;;;;;22.08;34.86;101606.63;5073861;28;20102;-57
2023/06/07 07:57:36;;;;;;;7.55;3.03;;;;;;;22.27;34.90;101608.69;5073795;28;20059;-56
2023/06/07 08:00:05;;;;;;;5.78;3.05;;;;;;;22.10;34.34;101597.47;5073085;28;20048;-56
2023/06/07 08:02:32;;;;;;;7.13;3.45;;;;;;;22.22;34.55;101605.53;5085406;28;20504;-56
2023/06/07 08:05:00;;;;;;;5.93;2.83;;;;;;;22.41;34.40;101604.88;5073157;28;20356;-56
2023/06/07 08:07:26;;;;;;;5.57;2.97;;;;;;;22.16;34.06;101602.31;5071096;28;20051;-57
2023/06/07 08:09:53;;;;;;;18.02;3.38;;;;;;;22.10;34.27;101602.84;5072276;28;20075;-56
2023/06/07 08:12:19;;;;;;;10.85;3.22;;;;;;;22.09;33.99;101601.13;5073327;28;20396;-57
2023/06/07 08:14:46;;;;;;;5.40;3.03;;;;;;;22.15;34.13;101599.75;5072147;28;20045;-57
2023/06/07 08:17:13;;;;;;;7.35;3.25;;;;;;;22.51;34.01;101598.63;5078910;28;20166;-57
2023/06/07 08:19:40;;;;;;;5.72;2.42;;;;;;;22.54;33.73;101600.19;5087302;28;20400;-57
2023/06/07 08:22:07;;;;;;;4.20;2.83;;;;;;;22.95;32.72;101598.56;5082879;28;20171;-57
2023/06/07 08:24:33;;;;;;;7.95;3.10;;;;;;;23.16;32.24;101605.81;5075759;28;20122;-57
2023/06/07 08:27:00;;;;;;;7.97;2.85;;;;;;;23.14;32.41;101597.84;5077011;28;20052;-57
2023/06/07 08:29:27;;;;;;;6.28;2.97;;;;;;;23.02;32.66;101588.09;5089489;28;20075;-55
2023/06/07 08:31:54;;;;;;;5.47;2.95;;;;;;;23.07;32.08;101588.59;5090727;28;20353;-55
2023/06/07 08:34:27;;;;;;;14.07;3.65;;;;;;;23.19;31.80;101595.63;5072949;28;20147;-55
2023/06/07 08:36:56;;;;;;;11.20;3.70;;;;;;;23.47;31.22;101598.63;5076692;28;20135;-55
2023/06/07 08:39:23;;;;;;;6.90;3.38;;;;;;;23.82;30.82;101592.84;5077402;28;20124;-56
2023/06/07 08:41:50;;;;;;;7.18;2.90;;;;;;;23.76;30.64;101597.91;5073099;28;20041;-57
2023/06/07 08:44:17;;;;;;;6.13;2.97;;;;;;;24.04;30.60;101588.22;5072549;28;20056;-56
2023/06/07 08:46:46;;;;;;;7.80;3.33;;;;;;;24.00;30.29;101595.75;5081301;28;20124;-56
2023/06/07 08:49:13;;;;;;;6.50;2.83;;;;;;;24.46;30.19;101595.28;5072452;28;20050;-56
2023/06/07 08:51:42;;;;;;;7.35;3.10;;;;;;;24.28;29.58;101593.25;5079052;28;20048;-57
2023/06/07 08:54:10;;;;;;;12.63;4.20;;;;;;;24.37;29.69;101597.84;5081267;28;20166;-56
2023/06/07 08:56:38;;;;;;;6.47;3.35;;;;;;;24.14;29.62;101593.66;5083182;28;20437;-56
2023/06/07 08:59:06;;;;;;;8.25;3.15;;;;;;;24.00;29.87;101589.50;5072946;28;20071;-57
2023/06/07 09:01:34;;;;;;;10.05;2.65;;;;;;;24.29;29.89;101586.88;5072053;28;20110;-57
2023/06/07 09:04:01;;;;;;;12.75;3.13;;;;;;;24.44;29.56;101590.03;5078664;28;20266;-55
2023/06/07 09:06:28;;;;;;;10.73;3.05;;;;;;;24.73;29.05;101586.50;5072734;28;20132;-57
2023/06/07 09:08:56;;;;;;;16.55;3.05;;;;;;;24.73;29.15;101587.38;5072324;28;20044;-55
2023/06/07 09:11:23;;;;;;;5.35;3.33;;;;;;;25.07;29.10;101586.88;5087887;28;20409;-56
2023/06/07 09:13:50;;;;;;;6.28;2.80;;;;;;;25.40;29.11;101590.16;5085762;28;20115;-57
2023/06/07 09:16:17;;;;;;;9.38;2.50;;;;;;;25.56;28.14;101591.38;5072105;28;20044;-56
2023/06/07 09:18:53;;;;;;;8.00;2.65;;;;;;;25.61;27.65;101591.78;5072424;28;20385;-57
2023/06/07 09:21:28;;;;;;;6.90;2.50;;;;;;;25.18;27.71;101579.63;5070808;28;20123;-58
2023/06/07 09:23:58;;;;;;;6.75;2.22;;;;;;;25.26;28.45;101585.16;5072513;28;20426;-56
2023/06/07 09:26:36;;;;;;;12.55;3.03;;;;;;;25.15;28.27;101578.06;5072089;28;20060;-56
2023/06/07 09:29:10;;;;;;;7.63;3.15;;;;;;;25.14;28.74;101580.91;5070762;28;20059;-57
2023/06/07 09:31:37;;;;;;;7.20;3.08;;;;;;;25.18;28.43;101574.22;5072251;28;20452;-55
2023/06/07 09:34:26;;;;;;;4.82;2.50;;;;;;;25.58;28.03;101581.25;5072509;28;20138;-55
2023/06/07 09:36:56;;;;;;;11.23;2.80;;;;;;;25.48;28.01;101573.16;5071670;28;20048;-55
2023/06/07 09:39:25;;;;;;;9.07;3.15;;;;;;;25.06;28.34;101566.28;5070167;28;20052;-55
2023/06/07 09:41:56;;;;;;;8.13;2.50;;;;;;;24.81;28.76;101572.28;5072237;28;20051;-57
2023/06/07 09:44:25;;;;;;;8.52;3.47;;;;;;;24.86;28.97;101575.41;5071828;28;20131;-55
2023/06/07 09:46:53;;;;;;;7.70;2.80;;;;;;;25.23;28.44;101571.94;5071393;28;20388;-56
2023/06/07 09:49:29;;;;;;;8.07;3.38;;;;;;;25.82;28.63;101573.44;5071845;28;20106;-56
2023/06/07 09:51:56;;;;;;;8.23;3.15;;;;;;;25.67;27.64;101577.66;5087537;28;20060;-56
2023/06/07 09:54:38;;;;;;;7.53;2.88;;;;;;;25.92;28.32;101569.84;5071712;28;20055;-56
2023/06/07 09:57:08;;;;;;;10.32;2.92;;;;;;;26.18;27.76;101573.53;5071389;28;20052;-56
2023/06/07 09:59:37;;;;;;;8.15;2.92;;;;;;;26.10;27.29;101572.59;5053959;28;20048;-57
2023/06/07 10:02:26;;;;;;;6.05;2.67;;;;;;;25.81;28.01;101566.34;5055072;28;20121;-56
2023/06/07 10:04:55;;;;;;;5.45;2.28;;;;;;;25.82;28.21;101568.03;5072481;28;20463;-57
2023/06/07 10:07:32;;;;;;;5.03;2.70;;;;;;;26.35;27.65;101568.28;5091031;28;20139;-57
2023/06/07 10:10:00;;;;;;;6.47;2.90;;;;;;;26.55;27.10;101559.00;5076339;28;20049;-57
2023/06/07 10:12:31;;;;;;;12.48;2.78;;;;;;;26.73;26.90;101550.06;5075898;28;20052;-57
2023/06/07 10:15:03;;;;;;;10.35;3.05;;;;;;;26.50;27.08;101561.34;5074719;28;20052;-57
2023/06/07 10:17:54;;;;;;;7.03;2.72;;;;;;;27.20;26.97;101566.00;5075462;28;20070;-57
2023/06/07 10:20:35;;;;;;;12.13;2.63;;;;;;;27.05;26.14;101559.44;5076519;28;20401;-57
2023/06/07 10:23:08;;;;;;;10.32;2.60;;;;;;;26.69;26.99;101557.63;5074226;28;20056;-57
2023/06/07 10:25:50;;;;;;;14.13;3.70;;;;;;;26.49;27.53;101553.38;5088911;28;20062;-57
2023/06/07 10:28:21;;;;;;;8.15;2.35;;;;;;;26.77;26.49;101548.72;5094115;28;20056;-57
2023/06/07 10:30:53;;;;;;;7.85;3.30;;;;;;;26.99;26.32;101549.22;5074601;28;20572;-57
2023/06/07 10:33:23;;;;;;;4.30;2.53;;;;;;;26.67;26.66;101545.25;5079801;28;20045;-57
2023/06/07 10:35:50;;;;;;;5.95;2.47;;;;;;;27.10;26.28;101547.13;5080371;28;20052;-57
2023/06/07 10:38:18;;;;;;;5.72;2.85;;;;;;;27.40;25.91;101536.78;5096309;28;20044;-56
2023/06/07 10:40:45;;;;;;;7.25;2.58;;;;;;;27.69;25.50;101537.44;5080997;28;20441;-56
2023/06/07 10:43:12;;;;;;;7.88;3.08;;;;;;;27.75;25.73;101534.06;5090099;28;20045;-56
2023/06/07 10:45:39;;;;;;;7.80;3.03;;;;;;;27.95;25.26;101532.78;5074839;28;20045;-56
2023/06/07 10:48:34;;;;;;;7.43;2.97;;;;;;;28.77;24.17;101534.78;5074794;28;20060;-57
2023/06/07 10:51:02;;;;;;;7.82;3.13;;;;;;;29.20;23.35;101531.88;5074207;28;20090;-56
2023/06/07 10:53:53;;;;;;;7.78;2.85;;;;;;;29.39;23.33;101528.75;5075068;28;20056;-56
2023/06/07 10:56:37;;;;;;;11.30;3.08;;;;;;;29.73;22.55;101524.00;5073564;28;20157;-57
2023/06/07 10:59:12;;;;;;;6.88;2.60;;;;;;;29.56;23.46;101528.69;5074192;28;20129;-56
2023/06/07 11:01:40;;;;;;;4.32;2.50;;;;;;;30.00;22.56;101518.09;5074646;28;20052;-57
2023/06/07 11:04:07;;;;;;;4.75;2.53;;;;;;;30.60;21.88;101522.97;5075120;28;20048;-57
2023/06/07 11:07:12;;;;;;;9.43;3.05;;;;;;;31.79;20.88;101525.78;5057294;28;20076;-57
2023/06/07 11:09:39;;;;;;;4.88;2.90;;;;;;;31.93;19.80;101511.25;5073348;28;20056;-56
2023/06/07 11:12:06;;;;;;;5.32;2.25;;;;;;;30.70;21.34;101515.34;5074933;28;20048;-57
2023/06/07 11:14:32;;;;;;;7.85;3.20;;;;;;;30.83;21.36;101526.53;5089926;28;20129;-56
2023/06/07 11:16:59;;;;;;;6.93;2.72;;;;;;;31.58;21.04;101519.25;5066165;28;20056;-56
2023/06/07 11:19:57;;;;;;;4.70;2.45;;;;;;;31.09;21.34;101525.25;5084791;28;20457;-57
2023/06/07 11:22:24;;;;;;;5.13;2.05;;;;;;;31.31;20.92;101519.91;5060123;28;20474;-57
2023/06/07 11:24:51;;;;;;;3.75;2.28;;;;;;;32.16;19.64;101521.19;5073692;28;20049;-57
2023/06/07 11:27:20;;;;;;;6.47;2.50;;;;;;;33.54;18.33;101518.06;5072250;28;20048;-57
2023/06/07 11:29:47;;;;;;;8.57;3.05;;;;;;;33.66;18.50;101511.78;5077595;28;20090;-58
2023/06/07 11:32:14;;;;;;;5.55;2.22;;;;;;;33.02;18.76;101518.38;5073718;28;20076;-56